Jenkins, Minnesota
Current Conditions -  °F | °C
As of 3:14 AM on Sunday 21 Dec 2014 (Local Time) from KPWC Reporting Station
Haze Haze  
Wind Chill: 18°   Ceiling: 300
Heat Index: 28°   Visibility: 2.5mi
Dew Point: 28°   Wind: 12mph
Humidity: 100%   Direction: 160°SSE
Pressure: 29.93"   Gusts: NA
Location:  46.65°N, 94.33°W
Report Text: KPWC 210914Z AUTO 16010KT 2 1/2SM BR OVC003 M02/M02 A2993 RMK AO2
Loading
Personal Weather Stations






























Interactive Weather Map New forecast layout! Learn more

10-Day Weather Forecast

Advertisements
Track Severe Weather on mobile